Alto, TX

6:37 PM CDT on July 24, 2014 (GMT -0500)
RAWS RATCLIFF TX US (MRTCT2) Elev 434 ft | 31.40 °N, 95.14 °W | Change Station

Current weather conditions updated 35 minutes ago

Clear
Clear
91 °F
Feels Like 95 °F
N
3
Wind Variable Wind from NE
Gusts 7.0 mph

Tomorrow is forecast to be nearly the same temperature as today.

Today
High -- | Low -- °F
--% Chance of Precip.
Yesterday
High -- | Low -- °F
Precip. -- in
6:31 AM 8:22 PM
Waning Crescent, 4% visible
Pressure 30.00 in
Visibility 10.0 miles
Clouds Clear
Heat Index 95 °F
Dew Point 67 °F
Humidity 46%
Rainfall 0.00 in
Snow Depth Not available.
UV 2 out of 12
Pollen 4.80 out of 12
Ozone Good
PM2.5 Good
Flu Activity Not available.
METAR KJSO 242315Z AUTO 05004KT 10SM CLR 31/20 A3000 RMK AO2 T03110202

More Conditions Fewer Conditions

Pressure 30.00 in
Visibility 10.0 miles
Clouds Clear
Heat Index 95 °F
Dew Point 67 °F
Humidity 46%
Rainfall 0.00 in
Snow Depth Not available.
UV 2 out of 12
Pollen 4.80 out of 12
Ozone Good
PM2.5 Good
Flu Activity Not available.
METAR KJSO 242315Z AUTO 05004KT 10SM CLR 31/20 A3000 RMK AO2 T03110202

More Conditions Fewer Conditions

10-Day Weather Forecast

Almanac

Astronomy

Jul. 24, 2014 Rise Set
Actual Time 6:31 AM CDT 8:22 PM CDT
Civil Twilight 6:04 AM CDT 8:49 PM CDT
Nautical Twilight 5:31 AM CDT 9:21 PM CDT
Astronomical Twilight 4:57 AM CDT 9:56 PM CDT
Moon 4:38 AM CDT 6:39 PM CDT
Length of Visible Light 14h 44m
Length of Day
13h 50m
Tomorrow will be 1m 15s shorter.
Waning Crescent, 4% of the Moon is Illuminated
Today
Waning Crescent
Jul 26
New
Aug 3
First Quarter
Aug 10
Full
Aug 17
Last Quarter

Today's Extremes

State Highs State Lows

Community

WunderPhotos

Upload Photos

1,737,162 photos uploaded!

Nearby

Air Quality

  Air Quality AQ Index Pollutant
Yesterday Moderate
OZONE
Yesterday Good
PM2.5
Current Good
OZONE
Current Good
PM2.5
Thursday Moderate
OZONE
Thursday Good
PM10
Friday Moderate
OZONE
Friday Good
PM10
Saturday Good
OZONE
Saturday Good
PM10
Sunday Good
OZONE
Sunday Good
PM10

Snow Depth

Station Depth Elevation
No new snow has been reported.

Earthquake Activity

City Distance Mag. Time & Date
No recent earthquake activity has been reported nearby.
Minimum magnitude displayed is 2.5.

Coastal Water Temperatures

Place Temperature
No Stations Reporting

Nearby Weather Stations

Station Location Temp. Heat Index Dew Point Humidity Wind Precip. Elev Updated Type
RAWS RATCLIFF TX, Ratcliff, TX 91 °F 95 °F 67 °F 46% NE  at  3 mph 0.00 in / hr 434 ft 6:02 PM CDT MADIS
Percilla, Grapeland, TX 87.7 °F 95 °F 72 °F 60% East  at  0.0 mph 0.00 in / hr 499 ft 6:36 PM CDT Rapid Fire
Old Bonner Road, Lufkin, TX 88.7 °F 97 °F 74 °F 61% East  at  0.0 mph - / hr 282 ft 6:25 PM CDT Normal

Show More Stations Show Fewer Stations